sensor_id;sensor_type;location;lat;lon;timestamp;temperature;humidity
75517;DHT22;64097;52.548;13.406;2023-02-25T06:05:12;9.00;65.80
75517;DHT22;64097;52.548;13.406;2023-02-25T06:07:38;8.90;65.90
75517;DHT22;64097;52.548;13.406;2023-02-25T06:10:04;9.00;66.10
75517;DHT22;64097;52.548;13.406;2023-02-25T06:12:32;8.90;66.10
75517;DHT22;64097;52.548;13.406;2023-02-25T06:14:58;8.90;66.50
75517;DHT22;64097;52.548;13.406;2023-02-25T06:17:24;8.90;66.40
75517;DHT22;64097;52.548;13.406;2023-02-25T06:19:51;8.90;66.10
75517;DHT22;64097;52.548;13.406;2023-02-25T06:22:18;8.90;66.10
75517;DHT22;64097;52.548;13.406;2023-02-25T06:24:43;8.90;66.20
75517;DHT22;64097;52.548;13.406;2023-02-25T06:27:09;8.90;66.40
75517;DHT22;64097;52.548;13.406;2023-02-25T06:29:36;8.90;66.40
75517;DHT22;64097;52.548;13.406;2023-02-25T06:32:09;8.90;66.20
75517;DHT22;64097;52.548;13.406;2023-02-25T06:34:35;8.80;66.10
75517;DHT22;64097;52.548;13.406;2023-02-25T06:37:01;8.80;66.10
75517;DHT22;64097;52.548;13.406;2023-02-25T06:39:27;8.80;66.10
75517;DHT22;64097;52.548;13.406;2023-02-25T06:41:52;8.80;66.10
75517;DHT22;64097;52.548;13.406;2023-02-25T06:44:18;8.80;66.10
75517;DHT22;64097;52.548;13.406;2023-02-25T06:46:44;8.70;65.90
75517;DHT22;64097;52.548;13.406;2023-02-25T06:49:09;8.70;65.80
75517;DHT22;64097;52.548;13.406;2023-02-25T06:51:37;8.70;65.80
75517;DHT22;64097;52.548;13.406;2023-02-25T06:54:03;8.60;66.10
75517;DHT22;64097;52.548;13.406;2023-02-25T06:56:29;8.60;66.40
75517;DHT22;64097;52.548;13.406;2023-02-25T06:58:55;8.60;66.60
75517;DHT22;64097;52.548;13.406;2023-02-25T07:01:23;8.60;66.50
75517;DHT22;64097;52.548;13.406;2023-02-25T07:03:49;8.60;66.60
75517;DHT22;64097;52.548;13.406;2023-02-25T07:06:16;8.60;66.50
75517;DHT22;64097;52.548;13.406;2023-02-25T07:08:43;8.60;66.80
75517;DHT22;64097;52.548;13.406;2023-02-25T07:11:29;8.60;66.80
75517;DHT22;64097;52.548;13.406;2023-02-25T07:13:56;8.60;66.90
75517;DHT22;64097;52.548;13.406;2023-02-25T07:16:22;8.60;67.00
75517;DHT22;64097;52.548;13.406;2023-02-25T07:18:47;8.60;67.30
75517;DHT22;64097;52.548;13.406;2023-02-25T07:21:13;8.60;67.00
75517;DHT22;64097;52.548;13.406;2023-02-25T07:23:40;8.60;67.00
75517;DHT22;64097;52.548;13.406;2023-02-25T07:26:09;8.60;66.60
75517;DHT22;64097;52.548;13.406;2023-02-25T07:28:35;8.60;66.60
75517;DHT22;64097;52.548;13.406;2023-02-25T07:31:03;8.60;66.70
75517;DHT22;64097;52.548;13.406;2023-02-25T07:33:32;8.60;67.10
75517;DHT22;64097;52.548;13.406;2023-02-25T07:35:57;8.60;66.80
75517;DHT22;64097;52.548;13.406;2023-02-25T07:38:23;8.70;66.80
75517;DHT22;64097;52.548;13.406;2023-02-25T07:40:49;8.70;66.90
75517;DHT22;64097;52.548;13.406;2023-02-25T07:43:15;8.70;66.90
75517;DHT22;64097;52.548;13.406;2023-02-25T07:45:40;8.80;66.80
75517;DHT22;64097;52.548;13.406;2023-02-25T07:48:06;8.80;66.00
75517;DHT22;64097;52.548;13.406;2023-02-25T07:50:32;8.70;67.00
75517;DHT22;64097;52.548;13.406;2023-02-25T07:52:58;8.80;66.40
75517;DHT22;64097;52.548;13.406;2023-02-25T07:55:24;8.80;66.50
75517;DHT22;64097;52.548;13.406;2023-02-25T07:57:50;8.80;67.80
75517;DHT22;64097;52.548;13.406;2023-02-25T08:00:16;8.90;68.20
75517;DHT22;64097;52.548;13.406;2023-02-25T08:02:43;8.90;68.00
75517;DHT22;64097;52.548;13.406;2023-02-25T08:05:09;8.90;67.70
75517;DHT22;64097;52.548;13.406;2023-02-25T08:07:35;9.00;66.90
75517;DHT22;64097;52.548;13.406;2023-02-25T08:10:01;9.00;66.50
75517;DHT22;64097;52.548;13.406;2023-02-25T08:12:26;9.00;66.30
75517;DHT22;64097;52.548;13.406;2023-02-25T08:14:52;9.00;66.50
75517;DHT22;64097;52.548;13.406;2023-02-25T08:17:18;9.00;66.20
75517;DHT22;64097;52.548;13.406;2023-02-25T08:19:43;8.90;66.40
75517;DHT22;64097;52.548;13.406;2023-02-25T08:22:09;8.90;66.90
75517;DHT22;64097;52.548;13.406;2023-02-25T08:24:40;8.90;66.30
75517;DHT22;64097;52.548;13.406;2023-02-25T08:27:06;8.90;66.10
75517;DHT22;64097;52.548;13.406;2023-02-25T08:29:36;8.90;65.90
75517;DHT22;64097;52.548;13.406;2023-02-25T08:32:04;8.90;66.00
75517;DHT22;64097;52.548;13.406;2023-02-25T08:34:30;8.80;66.20
75517;DHT22;64097;52.548;13.406;2023-02-25T08:36:56;8.80;66.30
75517;DHT22;64097;52.548;13.406;2023-02-25T08:39:24;8.70;66.20
75517;DHT22;64097;52.548;13.406;2023-02-25T08:41:49;8.70;65.60
75517;DHT22;64097;52.548;13.406;2023-02-25T08:44:15;8.70;66.00
75517;DHT22;64097;52.548;13.406;2023-02-25T08:46:44;8.60;66.30
75517;DHT22;64097;52.548;13.406;2023-02-25T08:49:10;8.60;66.50
75517;DHT22;64097;52.548;13.406;2023-02-25T08:51:37;8.70;66.80
75517;DHT22;64097;52.548;13.406;2023-02-25T08:54:07;8.70;66.50
75517;DHT22;64097;52.548;13.406;2023-02-25T08:56:34;8.70;66.20
75517;DHT22;64097;52.548;13.406;2023-02-25T08:59:01;8.70;66.60
75517;DHT22;64097;52.548;13.406;2023-02-25T09:01:27;8.70;66.20
75517;DHT22;64097;52.548;13.406;2023-02-25T09:04:13;8.70;66.20
75517;DHT22;64097;52.548;13.406;2023-02-25T09:06:39;8.70;66.60
75517;DHT22;64097;52.548;13.406;2023-02-25T09:09:05;8.70;66.90
75517;DHT22;64097;52.548;13.406;2023-02-25T09:11:31;8.70;66.90
75517;DHT22;64097;52.548;13.406;2023-02-25T09:13:57;8.70;66.60
75517;DHT22;64097;52.548;13.406;2023-02-25T09:16:23;8.70;66.60
75517;DHT22;64097;52.548;13.406;2023-02-25T09:18:50;8.70;67.40
75517;DHT22;64097;52.548;13.406;2023-02-25T09:21:17;8.70;66.40
75517;DHT22;64097;52.548;13.406;2023-02-25T09:23:43;8.70;66.40
75517;DHT22;64097;52.548;13.406;2023-02-25T09:26:09;8.70;66.10
75517;DHT22;64097;52.548;13.406;2023-02-25T09:28:35;8.60;65.70
75517;DHT22;64097;52.548;13.406;2023-02-25T09:31:01;8.60;66.10
75517;DHT22;64097;52.548;13.406;2023-02-25T09:33:27;8.60;66.10
75517;DHT22;64097;52.548;13.406;2023-02-25T09:35:53;8.60;66.00
75517;DHT22;64097;52.548;13.406;2023-02-25T09:38:19;8.60;65.80
75517;DHT22;64097;52.548;13.406;2023-02-25T09:40:47;8.60;65.00
75517;DHT22;64097;52.548;13.406;2023-02-25T09:45:49;8.70;64.80
75517;DHT22;64097;52.548;13.406;2023-02-25T09:48:26;8.70;64.90
75517;DHT22;64097;52.548;13.406;2023-02-25T09:51:03;8.70;65.30
75517;DHT22;64097;52.548;13.406;2023-02-25T09:53:39;8.80;64.80
75517;DHT22;64097;52.548;13.406;2023-02-25T09:56:07;8.70;64.20
75517;DHT22;64097;52.548;13.406;2023-02-25T09:58:53;8.70;64.70
75517;DHT22;64097;52.548;13.406;2023-02-25T10:01:28;8.80;65.50
75517;DHT22;64097;52.548;13.406;2023-02-25T10:04:20;8.80;65.10
75517;DHT22;64097;52.548;13.406;2023-02-25T10:06:49;8.90;64.70
75517;DHT22;64097;52.548;13.406;2023-02-25T10:11:52;9.00;64.00
75517;DHT22;64097;52.548;13.406;2023-02-25T10:17:10;9.00;62.90
75517;DHT22;64097;52.548;13.406;2023-02-25T10:20:21;9.00;63.10
75517;DHT22;64097;52.548;13.406;2023-02-25T10:25:44;9.00;62.90
75517;DHT22;64097;52.548;13.406;2023-02-25T10:28:16;9.00;62.50
75517;DHT22;64097;52.548;13.406;2023-02-25T10:33:24;8.90;63.00
75517;DHT22;64097;52.548;13.406;2023-02-25T10:36:02;8.90;63.10
75517;DHT22;64097;52.548;13.406;2023-02-25T10:38:30;8.80;62.90
75517;DHT22;64097;52.548;13.406;2023-02-25T10:40:57;8.90;63.10
75517;DHT22;64097;52.548;13.406;2023-02-25T10:43:24;8.80;62.40
75517;DHT22;64097;52.548;13.406;2023-02-25T10:46:18;8.80;62.70
75517;DHT22;64097;52.548;13.406;2023-02-25T10:48:46;8.90;62.60
75517;DHT22;64097;52.548;13.406;2023-02-25T10:51:18;8.80;63.00
75517;DHT22;64097;52.548;13.406;2023-02-25T10:54:02;8.90;62.80
75517;DHT22;64097;52.548;13.406;2023-02-25T10:56:43;8.90;62.60
75517;DHT22;64097;52.548;13.406;2023-02-25T11:01:55;8.90;61.60
75517;DHT22;64097;52.548;13.406;2023-02-25T11:04:28;8.90;62.30
75517;DHT22;64097;52.548;13.406;2023-02-25T11:06:56;9.00;62.10
75517;DHT22;64097;52.548;13.406;2023-02-25T11:12:09;9.10;61.90
75517;DHT22;64097;52.548;13.406;2023-02-25T11:14:36;9.10;60.90
75517;DHT22;64097;52.548;13.406;2023-02-25T11:17:05;9.10;61.00
75517;DHT22;64097;52.548;13.406;2023-02-25T11:19:37;9.10;60.40
75517;DHT22;64097;52.548;13.406;2023-02-25T11:22:09;9.10;60.40
75517;DHT22;64097;52.548;13.406;2023-02-25T11:24:37;9.10;60.20
75517;DHT22;64097;52.548;13.406;2023-02-25T11:27:06;9.10;60.50
75517;DHT22;64097;52.548;13.406;2023-02-25T11:29:36;9.00;60.10
75517;DHT22;64097;52.548;13.406;2023-02-25T11:32:17;9.00;60.40
75517;DHT22;64097;52.548;13.406;2023-02-25T11:34:51;9.00;61.40
75517;DHT22;64097;52.548;13.406;2023-02-25T11:37:42;8.90;60.20
75517;DHT22;64097;52.548;13.406;2023-02-25T11:40:23;8.80;60.20
75517;DHT22;64097;52.548;13.406;2023-02-25T11:43:26;8.80;60.70
75517;DHT22;64097;52.548;13.406;2023-02-25T11:45:56;8.90;61.30
75517;DHT22;64097;52.548;13.406;2023-02-25T11:48:57;8.90;61.50
75517;DHT22;64097;52.548;13.406;2023-02-25T11:51:28;9.00;60.90
75517;DHT22;64097;52.548;13.406;2023-02-25T11:54:01;9.00;61.00
75517;DHT22;64097;52.548;13.406;2023-02-25T11:56:35;9.10;61.20
75517;DHT22;64097;52.548;13.406;2023-02-25T11:59:29;9.10;61.20
75517;DHT22;64097;52.548;13.406;2023-02-25T12:08:21;9.10;60.50
75517;DHT22;64097;52.548;13.406;2023-02-25T12:22:36;8.80;62.30
75517;DHT22;64097;52.548;13.406;2023-02-25T12:35:47;8.60;60.10
75517;DHT22;64097;52.548;13.406;2023-02-25T12:43:51;8.50;61.10
75517;DHT22;64097;52.548;13.406;2023-02-25T13:25:10;7.90;69.70
75517;DHT22;64097;52.548;13.406;2023-02-25T13:27:50;7.80;70.30
75517;DHT22;64097;52.548;13.406;2023-02-25T13:33:17;7.60;70.20
75517;DHT22;64097;52.548;13.406;2023-02-25T13:36:17;7.60;70.90
